Time;durP1;ratioP1;P1;durP2;ratioP2;P2;SDS_P1;SDS_P2;PMS_P1;PMS_P2;Temp;Humidity;BMP_temperature;BMP_pressure;BME280_temperature;BME280_humidity;BME280_pressure;Samples;Min_cycle;Max_cycle;Signal;HPM_P1;HPM_P2
2022/07/01 00:02:09;;;;;;;;;0.75;0.25;;;;;17.28;59.12;100927.50;5011031;28;47037;-79
2022/07/01 00:04:34;;;;;;;;;1.50;1.00;;;;;17.21;58.54;100921.16;5014239;28;45720;-81
2022/07/01 00:07:00;;;;;;;;;0.00;0.00;;;;;17.26;58.81;100933.94;5012338;28;45646;-80
2022/07/01 00:09:25;;;;;;;;;1.00;1.00;;;;;17.19;59.45;100923.09;4995585;28;48022;-81
2022/07/01 00:11:51;;;;;;;;;0.00;0.00;;;;;17.17;59.10;100922.38;5008295;28;46627;-79
2022/07/01 00:14:16;;;;;;;;;0.00;0.00;;;;;17.12;59.09;100920.19;4990564;28;45764;-79
2022/07/01 00:16:42;;;;;;;;;0.00;0.00;;;;;17.20;59.17;100930.91;5012657;28;45742;-81
2022/07/01 00:19:08;;;;;;;;;1.75;0.00;;;;;17.12;59.01;100925.47;5003998;28;46305;-81
2022/07/01 00:21:33;;;;;;;;;0.00;0.00;;;;;17.11;59.19;100920.34;5011407;28;45809;-81
2022/07/01 00:24:02;;;;;;;;;0.50;0.50;;;;;17.12;59.02;100925.47;5013061;28;45786;-81
2022/07/01 00:26:27;;;;;;;;;2.00;1.00;;;;;17.16;59.23;100932.16;4994417;28;48502;-81
2022/07/01 00:28:57;;;;;;;;;1.00;0.00;;;;;17.20;59.08;100940.66;5013153;28;45907;-81
2022/07/01 00:31:22;;;;;;;;;0.75;0.25;;;;;17.15;59.22;100933.16;5013751;28;45717;-80
2022/07/01 00:33:48;;;;;;;;;1.00;0.00;;;;;17.12;59.44;100938.72;5013623;28;46053;-79
2022/07/01 00:36:13;;;;;;;;;0.75;0.00;;;;;17.13;59.38;100942.19;5009471;28;45769;-82
2022/07/01 00:38:39;;;;;;;;;0.75;0.75;;;;;17.08;59.46;100942.63;5012810;28;45703;-80
2022/07/01 00:41:04;;;;;;;;;1.00;0.00;;;;;17.13;59.40;100942.19;5013840;28;45465;-80
2022/07/01 00:43:35;;;;;;;;;1.00;0.25;;;;;17.15;59.71;100943.72;5012180;28;45596;-81
2022/07/01 00:46:01;;;;;;;;;1.00;1.00;;;;;17.05;59.43;100942.94;5012152;28;45782;-81
2022/07/01 00:48:27;;;;;;;;;5.75;4.25;;;;;17.16;59.25;100952.50;5013100;28;46568;-80
2022/07/01 00:50:52;;;;;;;;;10.50;9.00;;;;;17.17;59.62;100956.81;5013029;28;45809;-81
2022/07/01 00:53:18;;;;;;;;;1.75;1.00;;;;;17.17;59.49;100952.34;5009598;28;45579;-81
2022/07/01 00:55:43;;;;;;;;;0.00;0.00;;;;;17.10;59.61;100945.13;5015974;28;46512;-80
2022/07/01 00:58:09;;;;;;;;;3.50;2.00;;;;;17.14;59.83;100951.81;5012963;28;45636;-82
2022/07/01 01:00:38;;;;;;;;;1.00;1.00;;;;;17.02;59.92;100940.53;5013446;28;45673;-79
2022/07/01 01:03:05;;;;;;;;;2.00;1.00;;;;;17.09;59.62;100954.06;5000615;28;45522;-80
2022/07/01 01:05:33;;;;;;;;;0.75;0.75;;;;;17.07;59.83;100950.69;5007697;28;46674;-79
2022/07/01 01:07:58;;;;;;;;;5.50;4.00;;;;;17.04;59.75;100961.59;5012598;28;46440;-80
2022/07/01 01:10:28;;;;;;;;;1.00;1.00;;;;;16.99;60.02;100958.53;5011200;28;45762;-80
2022/07/01 01:12:57;;;;;;;;;1.50;1.00;;;;;16.97;60.12;100958.66;5007226;28;46863;-80
2022/07/01 01:15:27;;;;;;;;;0.25;0.00;;;;;16.85;60.63;100951.84;5002720;28;46613;-80
2022/07/01 01:17:55;;;;;;;;;5.00;4.25;;;;;16.81;60.49;100960.22;5008455;28;45951;-80
2022/07/01 01:20:20;;;;;;;;;2.75;2.00;;;;;16.83;60.65;100963.56;5013263;28;45755;-81
2022/07/01 01:22:47;;;;;;;;;4.00;3.50;;;;;16.70;60.42;100956.75;5012064;28;45687;-81
2022/07/01 01:25:13;;;;;;;;;1.00;1.00;;;;;16.73;60.57;100964.38;5005076;28;46362;-81
2022/07/01 01:27:43;;;;;;;;;1.75;1.00;;;;;16.75;60.48;100972.19;5004671;28;45704;-80
2022/07/01 01:30:11;;;;;;;;;1.00;0.50;;;;;16.76;60.81;100982.66;5013270;28;45944;-80
2022/07/01 01:32:41;;;;;;;;;1.00;1.00;;;;;16.67;61.37;100972.91;5009371;28;46133;-80
2022/07/01 01:35:10;;;;;;;;;0.25;0.25;;;;;16.71;61.19;100994.63;5011497;28;48582;-80
2022/07/01 01:37:35;;;;;;;;;2.25;1.00;;;;;16.65;61.01;100985.44;5011947;28;46427;-79
2022/07/01 01:40:01;;;;;;;;;1.00;0.25;;;;;16.62;61.05;100985.72;5012900;28;45667;-80
2022/07/01 01:42:27;;;;;;;;;0.25;0.00;;;;;16.55;61.32;100975.78;5010483;28;45856;-81
2022/07/01 01:44:54;;;;;;;;;0.25;0.25;;;;;16.43;61.67;100967.13;5006653;28;45709;-81
2022/07/01 01:47:20;;;;;;;;;1.50;1.00;;;;;16.42;61.65;100969.91;5009329;28;47417;-79
2022/07/01 01:49:45;;;;;;;;;1.00;1.00;;;;;16.38;61.59;100972.00;5012727;28;45515;-79
2022/07/01 01:52:11;;;;;;;;;1.00;1.00;;;;;16.44;61.39;100981.19;5012240;28;45999;-79
2022/07/01 01:54:37;;;;;;;;;2.00;1.00;;;;;16.39;61.56;100973.69;5011974;28;46769;-81
2022/07/01 01:57:04;;;;;;;;;2.00;1.00;;;;;16.40;61.58;100987.75;4993899;28;47383;-80
2022/07/01 01:59:30;;;;;;;;;0.50;0.50;;;;;16.37;62.10;100986.19;5012549;28;45750;-81
2022/07/01 02:01:56;;;;;;;;;0.75;0.25;;;;;16.34;61.98;100992.63;4986843;28;45724;-80
2022/07/01 02:04:24;;;;;;;;;3.00;3.00;;;;;16.23;61.57;100973.38;4993348;28;46851;-80
2022/07/01 02:06:51;;;;;;;;;3.00;3.00;;;;;16.28;61.77;100987.88;5004558;28;47843;-81
2022/07/01 02:09:16;;;;;;;;;3.00;2.00;;;;;16.29;61.77;100994.00;5012298;28;45713;-81
2022/07/01 02:11:42;;;;;;;;;2.25;2.00;;;;;16.24;61.96;100983.00;5012469;28;45914;-80
2022/07/01 02:14:07;;;;;;;;;1.00;1.00;;;;;16.29;62.04;100997.47;5009976;28;45557;-81
2022/07/01 02:16:33;;;;;;;;;1.00;0.00;;;;;16.28;61.95;100997.59;5011922;28;45736;-81
2022/07/01 02:18:58;;;;;;;;;1.00;1.00;;;;;16.23;62.37;100995.38;4993511;28;45710;-79
2022/07/01 02:21:24;;;;;;;;;1.50;1.00;;;;;16.13;62.18;100988.38;5010326;28;46002;-80
2022/07/01 02:23:51;;;;;;;;;1.25;1.00;;;;;16.17;62.44;101008.28;5012104;28;46420;-80
2022/07/01 02:26:17;;;;;;;;;2.00;2.00;;;;;16.09;62.69;101000.19;4988781;28;48023;-81
2022/07/01 02:28:42;;;;;;;;;1.00;1.00;;;;;16.08;62.61;101004.66;5010182;28;45740;-80
2022/07/01 02:31:11;;;;;;;;;1.25;1.00;;;;;16.00;62.47;100995.72;5011911;28;45752;-82
2022/07/01 02:33:36;;;;;;;;;1.00;1.00;;;;;16.01;62.59;100997.38;5009806;28;47075;-80
2022/07/01 02:36:05;;;;;;;;;1.75;1.00;;;;;16.05;62.49;101012.00;4999843;28;47776;-80
2022/07/01 02:38:33;;;;;;;;;1.75;1.00;;;;;16.01;62.71;101006.16;4993401;28;45817;-81
2022/07/01 02:41:25;;;;;;;;;1.50;1.00;;;;;16.00;62.64;101012.41;4994906;28;45961;-81
2022/07/01 02:43:50;;;;;;;;;1.50;1.50;;;;;15.89;62.71;101005.41;4949557;28;45761;-82
2022/07/01 02:49:19;;;;;;;;;1.00;1.00;;;;;15.98;62.70;101029.38;5113171;22;45926;-80
2022/07/01 02:51:56;;;;;;;;;2.00;1.00;;;;;15.90;62.88;101012.38;5010251;28;45791;-80
2022/07/01 02:54:25;;;;;;;;;1.00;1.00;;;;;15.97;62.59;101035.63;5012392;28;46459;-81
2022/07/01 02:56:50;;;;;;;;;1.75;1.00;;;;;15.91;62.68;101031.72;5010933;28;46147;-79
2022/07/01 02:59:16;;;;;;;;;0.00;0.00;;;;;15.83;62.71;101015.66;5011539;28;45699;-81
2022/07/01 03:01:41;;;;;;;;;1.00;1.00;;;;;15.83;62.55;101024.44;5003482;28;45996;-81
2022/07/01 03:04:07;;;;;;;;;2.50;1.00;;;;;15.82;62.89;101029.84;5001436;28;45836;-80
2022/07/01 03:06:32;;;;;;;;;1.75;1.00;;;;;15.81;62.80;101038.78;5010065;28;45875;-80
2022/07/01 03:08:57;;;;;;;;;1.25;1.00;;;;;15.78;62.74;101033.72;5006462;28;45725;-81
2022/07/01 03:11:23;;;;;;;;;1.00;1.00;;;;;15.79;62.96;101036.25;5005581;28;45713;-80
2022/07/01 03:13:48;;;;;;;;;1.00;1.00;;;;;15.73;62.96;101026.19;5015887;28;45608;-82
2022/07/01 03:16:14;;;;;;;;;1.25;1.00;;;;;15.72;63.02;101023.69;5011687;28;46300;-80
2022/07/01 03:18:40;;;;;;;;;2.00;2.00;;;;;15.73;62.99;101036.78;5015081;28;45687;-80
2022/07/01 03:21:05;;;;;;;;;1.75;1.00;;;;;15.69;62.55;101039.81;5016008;28;45525;-80
2022/07/01 03:23:31;;;;;;;;;2.00;2.00;;;;;15.67;62.72;101039.94;4996470;28;48350;-79
2022/07/01 03:25:56;;;;;;;;;2.75;2.00;;;;;15.59;62.98;101045.06;5009798;28;45734;-81
2022/07/01 03:28:22;;;;;;;;;2.25;2.00;;;;;15.52;62.94;101043.88;5013558;28;46138;-80
2022/07/01 03:30:47;;;;;;;;;2.75;1.00;;;;;15.52;62.92;101046.53;5014428;28;45915;-80
2022/07/01 03:33:12;;;;;;;;;2.00;1.00;;;;;15.47;63.07;101052.16;4996980;28;48628;-81
2022/07/01 03:35:45;;;;;;;;;2.00;2.00;;;;;15.34;63.13;101042.75;5016550;28;45762;-80
2022/07/01 03:38:11;;;;;;;;;1.25;1.25;;;;;15.38;63.41;101060.03;4997387;28;45937;-81
2022/07/01 03:40:38;;;;;;;;;3.00;2.00;;;;;15.26;63.19;101048.69;5011510;28;45828;-81
2022/07/01 03:43:05;;;;;;;;;1.75;1.75;;;;;15.24;63.54;101049.78;5011238;28;46680;-81
2022/07/01 03:45:31;;;;;;;;;1.00;1.00;;;;;15.25;63.64;101060.22;5012664;28;46204;-80
2022/07/01 03:47:56;;;;;;;;;1.50;1.00;;;;;15.19;63.72;101049.31;5014366;28;46015;-80
2022/07/01 03:50:23;;;;;;;;;3.00;1.50;;;;;15.22;64.11;101070.19;5013410;28;45830;-81
2022/07/01 03:54:29;;;;;;;;;2.50;2.00;;;;;15.08;63.71;101051.06;5014240;28;46080;-80
2022/07/01 03:55:34;;;;;;;;;1.00;1.00;;;;;15.09;64.06;101073.00;5013222;28;46034;-80
2022/07/01 03:58:00;;;;;;;;;2.00;2.00;;;;;15.02;64.05;101063.91;5012673;28;46858;-81
2022/07/01 04:00:25;;;;;;;;;2.50;2.50;;;;;14.97;64.30;101060.81;5003707;28;45501;-78
2022/07/01 04:02:51;;;;;;;;;3.00;2.00;;;;;14.89;64.53;101057.97;4999495;28;48504;-80
2022/07/01 04:05:16;;;;;;;;;2.25;2.00;;;;;14.87;64.56;101066.00;5013058;28;46591;-80
2022/07/01 04:07:41;;;;;;;;;2.75;2.75;;;;;14.89;64.96;101074.66;5014048;28;45733;-80
2022/07/01 04:10:07;;;;;;;;;2.00;2.00;;;;;14.89;64.80;101081.72;5022716;28;45696;-80
2022/07/01 04:12:32;;;;;;;;;2.75;2.00;;;;;14.86;64.90;101079.31;5013399;28;46497;-80
2022/07/01 04:14:58;;;;;;;;;2.00;2.00;;;;;14.86;64.78;101089.88;5014181;28;46331;-81
2022/07/01 04:17:23;;;;;;;;;3.00;2.50;;;;;14.79;65.15;101076.34;5001844;28;45904;-80
2022/07/01 04:19:49;;;;;;;;;3.50;3.00;;;;;14.75;65.09;101074.91;5004867;28;45525;-80
2022/07/01 04:22:33;;;;;;;;;2.25;2.25;;;;;14.79;65.27;101083.44;5008946;28;46464;-81
2022/07/01 04:24:59;;;;;;;;;3.00;2.50;;;;;14.76;65.43;101097.69;5011326;28;46558;-81
2022/07/01 04:27:24;;;;;;;;;2.25;2.00;;;;;14.64;65.83;101080.22;5011371;28;45818;-81
2022/07/01 04:29:50;;;;;;;;;2.75;2.00;;;;;14.61;65.61;101081.31;5014122;28;45798;-80
2022/07/01 04:32:15;;;;;;;;;2.25;2.00;;;;;14.63;65.81;101082.00;5013537;28;46535;-80
2022/07/01 04:34:40;;;;;;;;;2.00;1.00;;;;;14.61;65.94;101078.69;5007881;28;46117;-80
2022/07/01 04:37:06;;;;;;;;;2.00;2.00;;;;;14.65;65.98;101093.28;5006602;28;45623;-80
2022/07/01 04:39:31;;;;;;;;;3.50;2.25;;;;;14.71;65.77;101099.88;5016024;28;46778;-80
2022/07/01 04:41:59;;;;;;;;;2.25;2.25;;;;;14.67;66.13;101091.38;4996720;28;47654;-81
2022/07/01 04:44:32;;;;;;;;;2.25;1.50;;;;;14.66;66.05;101080.94;5014782;28;45989;-81
2022/07/01 04:46:58;;;;;;;;;1.25;1.25;;;;;14.65;65.66;101090.66;5014516;28;45872;-81
2022/07/01 04:49:24;;;;;;;;;1.25;1.00;;;;;14.75;65.95;101106.56;5014755;28;45667;-81
2022/07/01 04:51:50;;;;;;;;;2.00;2.00;;;;;14.65;65.79;101090.66;5012927;28;46575;-81
2022/07/01 04:54:15;;;;;;;;;2.50;2.00;;;;;14.63;66.04;101094.34;5013496;28;45737;-80
2022/07/01 04:56:41;;;;;;;;;1.25;1.25;;;;;14.62;66.13;101088.28;5016493;28;45682;-80
2022/07/01 04:59:06;;;;;;;;;1.00;1.00;;;;;14.67;65.70;101101.94;5017572;28;45933;-80
2022/07/01 05:01:32;;;;;;;;;1.25;1.00;;;;;14.62;65.91;101090.06;5014833;28;47405;-80
2022/07/01 05:03:58;;;;;;;;;2.50;2.00;;;;;14.75;66.25;101111.00;4990465;28;46509;-80
2022/07/01 05:06:24;;;;;;;;;2.00;1.00;;;;;14.69;65.73;101109.69;5016244;28;45807;-80
2022/07/01 05:08:50;;;;;;;;;2.25;1.75;;;;;14.69;66.17;101114.97;5010701;28;45773;-80
2022/07/01 05:11:16;;;;;;;;;2.00;2.00;;;;;14.70;65.68;101114.84;5017947;28;46415;-79
2022/07/01 05:13:41;;;;;;;;;1.25;1.25;;;;;14.70;66.01;101120.13;5019025;28;45692;-79
2022/07/01 05:16:08;;;;;;;;;3.00;2.00;;;;;14.71;65.66;101113.06;5015367;28;46004;-80
2022/07/01 05:24:03;;;;;;;;;3.00;2.00;;;;;14.89;65.53;101123.94;5016122;28;45599;-80
2022/07/01 05:26:28;;;;;;;;;1.25;1.25;;;;;14.87;65.16;101112.66;5017148;28;45745;-80
2022/07/01 05:28:54;;;;;;;;;1.75;1.75;;;;;14.89;65.00;101113.38;5019849;28;46189;-80
2022/07/01 05:31:20;;;;;;;;;2.00;2.00;;;;;14.93;65.04;101109.53;5016141;28;46780;-81
2022/07/01 05:33:46;;;;;;;;;1.50;1.00;;;;;15.00;64.92;101116.00;5005819;28;46547;-80
2022/07/01 05:36:13;;;;;;;;;1.50;1.50;;;;;15.04;64.89;101126.16;5014497;28;45776;-84
2022/07/01 05:38:38;;;;;;;;;1.00;0.75;;;;;14.98;64.55;101120.53;5020291;28;45760;-82
2022/07/01 05:41:04;;;;;;;;;2.00;1.25;;;;;15.03;64.39;101131.56;5016983;28;45719;-85
2022/07/01 05:43:30;;;;;;;;;1.00;0.00;;;;;14.95;64.59;101121.63;5012800;28;45612;-82
2022/07/01 05:45:56;;;;;;;;;1.00;1.00;;;;;14.99;64.25;101123.06;5015869;28;45791;-82
2022/07/01 05:48:22;;;;;;;;;1.50;1.00;;;;;14.96;63.80;101125.09;5016962;28;45745;-81
2022/07/01 05:50:48;;;;;;;;;0.00;0.00;;;;;15.00;63.88;101130.03;5008041;28;47336;-82
2022/07/01 05:53:14;;;;;;;;;1.00;1.00;;;;;15.09;63.97;101134.56;5014885;28;45937;-84
2022/07/01 05:55:40;;;;;;;;;1.00;1.00;;;;;15.06;63.78;101123.41;5009994;28;46222;-81
2022/07/01 05:58:08;;;;;;;;;1.00;0.75;;;;;15.13;63.53;101141.25;5009880;28;45623;-85
2022/07/01 06:00:33;;;;;;;;;1.00;1.00;;;;;15.05;63.34;101121.72;5012252;28;46042;-84
2022/07/01 06:02:59;;;;;;;;;0.75;0.25;;;;;15.14;63.45;101139.44;5004152;28;46398;-82
2022/07/01 06:05:24;;;;;;;;;0.00;0.00;;;;;15.17;63.15;101135.72;5005724;28;46684;-83
2022/07/01 06:07:49;;;;;;;;;1.25;1.00;;;;;15.14;62.92;101136.81;5012417;28;45599;-83
2022/07/01 06:10:15;;;;;;;;;0.50;0.25;;;;;15.22;62.95;101144.97;5013521;28;46939;-83
2022/07/01 06:12:40;;;;;;;;;1.00;1.00;;;;;15.27;63.16;101153.34;5012438;28;45711;-83
2022/07/01 06:15:12;;;;;;;;;0.75;0.00;;;;;15.32;62.91;101150.31;5010970;28;46067;-82
2022/07/01 06:17:39;;;;;;;;;1.00;1.00;;;;;15.31;62.83;101140.72;5008187;28;45703;-84
2022/07/01 06:20:06;;;;;;;;;1.00;1.00;;;;;15.37;62.18;101156.91;5012503;28;45765;-83
2022/07/01 06:22:32;;;;;;;;;1.00;0.25;;;;;15.38;62.29;101152.44;5012278;28;46037;-82
2022/07/01 06:24:58;;;;;;;;;0.75;0.25;;;;;15.41;62.23;101155.66;5013165;28;45746;-83
2022/07/01 06:27:23;;;;;;;;;2.00;1.00;;;;;15.38;62.34;101141.88;5013795;28;45579;-83
2022/07/01 06:29:50;;;;;;;;;1.50;1.00;;;;;15.44;62.02;101144.84;5013220;28;46542;-84
2022/07/01 06:32:15;;;;;;;;;1.50;1.00;;;;;15.53;61.95;101153.84;5010213;28;46130;-84
2022/07/01 06:34:40;;;;;;;;;1.00;0.00;;;;;15.55;61.79;101151.09;5013070;28;45908;-84
2022/07/01 06:37:06;;;;;;;;;0.50;0.50;;;;;15.54;61.61;101142.31;5012793;28;45782;-83
2022/07/01 06:39:31;;;;;;;;;1.00;1.00;;;;;15.56;61.42;101143.00;5012346;28;46275;-79
2022/07/01 06:41:57;;;;;;;;;0.50;0.50;;;;;15.70;61.33;101155.09;5012668;28;46077;-82
2022/07/01 06:44:22;;;;;;;;;1.00;0.50;;;;;15.68;61.46;101149.09;5016032;28;45563;-81
2022/07/01 06:46:48;;;;;;;;;1.00;0.00;;;;;15.69;60.70;101143.69;5013115;28;45862;-83
2022/07/01 06:49:14;;;;;;;;;0.25;0.25;;;;;15.85;60.78;101159.06;5007583;28;45816;-82
2022/07/01 06:52:02;;;;;;;;;1.00;0.00;;;;;15.76;60.43;101150.09;5011987;28;46004;-80
2022/07/01 07:01:20;;;;;;;;;0.00;0.00;;;;;16.03;60.23;101169.91;4921021;28;46866;-79
2022/07/01 07:07:15;;;;;;;;;0.75;0.25;;;;;16.20;59.45;101174.56;4827909;29;45874;-78
2022/07/01 07:11:02;;;;;;;;;1.00;0.00;;;;;16.24;58.93;101168.91;4819944;29;46254;-76
2022/07/01 07:13:02;;;;;;;;;2.00;0.00;;;;;16.25;58.55;101175.00;4722846;30;46151;-77
2022/07/01 07:15:27;;;;;;;;;3.00;0.00;;;;;16.25;58.30;101164.44;4733951;30;46330;-77
2022/07/01 07:17:54;;;;;;;;;1.00;0.00;;;;;16.25;58.02;101162.63;4731576;30;45749;-78
2022/07/01 07:20:19;;;;;;;;;1.00;0.00;;;;;16.23;57.74;101164.59;4731903;29;45715;-79
2022/07/01 07:22:45;;;;;;;;;0.25;0.25;;;;;16.32;57.90;101171.72;4731826;29;45797;-79
2022/07/01 07:25:10;;;;;;;;;1.00;0.00;;;;;16.35;57.70;101158.25;4730784;30;45888;-76
2022/07/01 07:27:35;;;;;;;;;1.00;0.00;;;;;16.31;56.99;101158.63;4730222;30;45809;-79
2022/07/01 07:30:03;;;;;;;;;1.00;0.00;;;;;16.44;56.87;101175.13;4730915;29;46141;-78
2022/07/01 07:32:28;;;;;;;;;0.50;0.50;;;;;16.43;56.69;101168.16;4730180;30;47373;-78
2022/07/01 07:34:53;;;;;;;;;0.00;0.00;;;;;16.49;56.44;101180.84;4716745;29;46172;-78
2022/07/01 07:37:19;;;;;;;;;0.25;0.25;;;;;16.49;56.48;101175.56;4721228;29;45953;-79
2022/07/01 07:39:44;;;;;;;;;1.00;0.00;;;;;16.50;55.61;101165.81;4758796;29;45691;-78
2022/07/01 07:42:10;;;;;;;;;0.00;0.00;;;;;16.46;55.04;101152.03;4785848;29;45765;-78
2022/07/01 07:44:35;;;;;;;;;0.00;0.00;;;;;16.58;55.29;101168.63;4867853;29;45762;-78
2022/07/01 07:47:00;;;;;;;;;1.00;1.00;;;;;16.62;54.86;101191.25;4895865;29;45723;-78
2022/07/01 07:49:26;;;;;;;;;1.00;0.00;;;;;16.65;54.38;101175.94;4957351;28;45716;-77
2022/07/01 07:51:52;;;;;;;;;0.00;0.00;;;;;16.65;53.85;101175.09;5012222;28;47810;-78
2022/07/01 07:54:17;;;;;;;;;0.00;0.00;;;;;16.69;54.10;101171.19;5012363;28;47365;-78
2022/07/01 07:56:43;;;;;;;;;1.25;0.00;;;;;16.74;54.47;101166.34;5013520;28;45753;-77
2022/07/01 07:59:08;;;;;;;;;0.75;0.00;;;;;16.73;54.71;101159.38;4995387;28;46037;-79
2022/07/01 08:01:34;;;;;;;;;0.00;0.00;;;;;16.84;54.60;101166.38;5010275;28;46544;-77
2022/07/01 08:03:59;;;;;;;;;0.75;0.00;;;;;16.88;54.48;101162.47;5003635;28;46191;-77
2022/07/01 08:06:25;;;;;;;;;0.00;0.00;;;;;16.97;53.86;101161.66;5015758;28;45755;-77
2022/07/01 08:08:50;;;;;;;;;0.00;0.00;;;;;17.02;53.70;101170.88;5014309;28;45837;-78
2022/07/01 08:11:16;;;;;;;;;0.00;0.00;;;;;17.05;53.04;101175.91;5013885;28;46407;-78
2022/07/01 08:13:42;;;;;;;;;0.25;0.00;;;;;17.07;52.42;101173.09;5013658;28;46155;-77
2022/07/01 08:16:08;;;;;;;;;0.50;0.00;;;;;17.10;52.20;101172.84;5011563;28;45732;-78
2022/07/01 08:18:33;;;;;;;;;0.00;0.00;;;;;17.11;52.17;101174.53;5013143;28;45885;-78
2022/07/01 08:20:59;;;;;;;;;0.00;0.00;;;;;17.15;51.89;101178.56;5013451;28;46570;-78
2022/07/01 08:23:24;;;;;;;;;0.75;0.00;;;;;17.23;51.54;101188.44;5013314;28;45669;-80
2022/07/01 08:25:50;;;;;;;;;0.00;0.00;;;;;17.27;50.95;101185.41;5013045;28;45670;-81
2022/07/01 08:28:16;;;;;;;;;0.00;0.00;;;;;17.31;50.96;101192.09;5013703;28;45702;-82
2022/07/01 08:30:42;;;;;;;;;0.25;0.25;;;;;17.32;50.90;101175.25;5013582;28;45867;-82
2022/07/01 08:33:08;;;;;;;;;0.00;0.00;;;;;17.36;49.98;101192.53;5004423;28;45774;-81
2022/07/01 08:35:33;;;;;;;;;0.00;0.00;;;;;17.32;49.49;101185.00;5012150;28;45709;-83
2022/07/01 08:37:59;;;;;;;;;1.00;0.00;;;;;17.40;50.31;101182.47;5010941;28;45735;-81
2022/07/01 08:40:26;;;;;;;;;0.00;0.00;;;;;17.39;49.51;101183.44;5013764;28;46688;-81
2022/07/01 08:42:55;;;;;;;;;0.00;0.00;;;;;17.43;50.29;101180.41;5013729;28;46322;-83
2022/07/01 08:45:21;;;;;;;;;0.25;0.00;;;;;17.52;50.04;101195.47;5012591;28;45846;-83
2022/07/01 08:47:57;;;;;;;;;0.00;0.00;;;;;17.50;49.68;101183.31;5014152;28;45898;-84
2022/07/01 08:50:23;;;;;;;;;0.50;0.00;;;;;17.46;49.69;101171.31;5010936;28;46881;-82
2022/07/01 08:52:49;;;;;;;;;0.00;0.00;;;;;17.61;49.80;101191.16;5013461;28;46641;-81
2022/07/01 08:55:14;;;;;;;;;0.00;0.00;;;;;17.61;49.75;101186.69;4995543;28;46021;-83
2022/07/01 08:57:40;;;;;;;;;0.00;0.00;;;;;17.70;49.55;101203.59;5013459;28;47205;-78
2022/07/01 09:00:07;;;;;;;;;0.50;0.00;;;;;17.80;49.89;101206.22;5011862;28;46752;-81
2022/07/01 09:02:53;;;;;;;;;0.25;0.25;;;;;17.85;49.38;101207.47;5010419;28;47627;-80
2022/07/01 09:05:19;;;;;;;;;0.00;0.00;;;;;17.90;49.73;101213.19;5008761;28;45764;-82
2022/07/01 09:07:46;;;;;;;;;0.00;0.00;;;;;17.94;49.76;101205.78;5005612;28;45738;-80
2022/07/01 09:10:18;;;;;;;;;1.00;0.00;;;;;17.93;49.71;101196.97;5011550;28;46821;-81
2022/07/01 09:12:47;;;;;;;;;0.00;0.00;;;;;18.04;49.53;101206.59;4994435;28;47225;-81
2022/07/01 09:15:26;;;;;;;;;1.00;0.00;;;;;18.08;49.28;101213.31;5012133;28;45960;-80
2022/07/01 09:17:53;;;;;;;;;0.00;0.00;;;;;18.13;48.96;101215.53;5008791;28;45958;-82
2022/07/01 09:20:36;;;;;;;;;0.00;0.00;;;;;18.08;48.74;101192.09;5011553;28;47211;-82
2022/07/01 09:23:05;;;;;;;;;0.00;0.00;;;;;18.14;48.83;101196.78;5011300;28;46051;-82
2022/07/01 09:25:37;;;;;;;;;1.00;0.00;;;;;18.24;49.47;101208.25;5013937;28;45752;-79
2022/07/01 09:28:19;;;;;;;;;0.00;0.00;;;;;18.32;49.11;101205.69;5015533;28;45750;-80
2022/07/01 09:30:47;;;;;;;;;0.00;0.00;;;;;18.35;49.02;101204.59;5014227;28;46835;-77
2022/07/01 09:33:16;;;;;;;;;0.00;0.00;;;;;18.46;48.93;101217.69;5012598;28;45995;-80
2022/07/01 09:35:44;;;;;;;;;1.00;0.00;;;;;18.54;48.51;101222.25;5012505;28;45914;-79
2022/07/01 09:38:14;;;;;;;;;0.00;0.00;;;;;18.52;48.45;101198.50;5012384;28;45810;-80
2022/07/01 09:41:03;;;;;;;;;0.25;0.25;;;;;18.67;47.18;101220.16;5001750;28;46841;-79
2022/07/01 09:43:34;;;;;;;;;0.00;0.00;;;;;18.71;47.36;101219.69;5012117;28;46307;-81
2022/07/01 09:46:10;;;;;;;;;0.50;0.00;;;;;18.78;46.95;101222.59;4994579;28;45706;-81
2022/07/01 09:48:35;;;;;;;;;1.00;0.00;;;;;18.84;46.91;101219.34;5012068;28;45666;-80
2022/07/01 09:51:05;;;;;;;;;0.75;0.00;;;;;18.91;47.46;101224.91;5012034;28;45974;-80
2022/07/01 09:53:31;;;;;;;;;0.00;0.00;;;;;18.88;46.64;101209.28;5012243;28;45900;-80
2022/07/01 09:55:57;;;;;;;;;0.00;0.00;;;;;18.91;46.52;101207.16;4991357;28;46134;-80
2022/07/01 09:58:23;;;;;;;;;0.00;0.00;;;;;18.92;46.34;101208.00;5012189;28;45885;-81
2022/07/01 10:00:50;;;;;;;;;0.00;0.00;;;;;18.97;46.18;101214.53;5012059;28;46404;-81
2022/07/01 10:03:18;;;;;;;;;0.00;0.00;;;;;19.06;46.04;101215.44;4998251;28;46306;-81
2022/07/01 10:05:53;;;;;;;;;0.00;0.00;;;;;19.08;46.49;101213.50;5014015;28;45869;-81
2022/07/01 10:08:36;;;;;;;;;1.25;1.00;;;;;19.15;46.33;101217.22;5011374;28;45772;-79
2022/07/01 10:11:22;;;;;;;;;0.00;0.00;;;;;19.22;46.61;101211.16;5011826;28;45720;-80
2022/07/01 10:13:48;;;;;;;;;0.00;0.00;;;;;19.28;46.39;101217.69;5004514;28;46497;-78
2022/07/01 10:16:14;;;;;;;;;0.00;0.00;;;;;19.37;46.51;101221.28;5007902;28;45673;-77
2022/07/01 10:18:40;;;;;;;;;1.00;0.00;;;;;19.40;46.30;101210.34;5011967;28;45690;-78
2022/07/01 10:21:06;;;;;;;;;0.00;0.00;;;;;19.53;46.08;101229.44;5011233;28;45816;-79
2022/07/01 10:23:40;;;;;;;;;0.00;0.00;;;;;19.55;45.76;101208.84;5011714;28;45850;-80
2022/07/01 10:26:07;;;;;;;;;1.00;0.00;;;;;19.57;45.49;101209.53;4993304;28;45749;-78
2022/07/01 10:28:41;;;;;;;;;1.00;0.00;;;;;19.68;44.77;101227.94;5012314;28;46145;-77
2022/07/01 10:31:13;;;;;;;;;0.75;0.00;;;;;19.66;44.40;101214.78;5007865;28;45568;-79
2022/07/01 10:33:43;;;;;;;;;0.00;0.00;;;;;19.72;44.19;101215.16;5011937;28;45934;-79
2022/07/01 10:36:15;;;;;;;;;1.00;0.00;;;;;19.77;44.77;101216.34;5011925;28;45795;-79
2022/07/01 10:39:10;;;;;;;;;0.00;0.00;;;;;19.89;43.94;101223.13;5011841;28;45663;-80
2022/07/01 10:41:35;;;;;;;;;0.50;0.00;;;;;19.96;44.33;101210.88;5011443;28;45779;-81
2022/07/01 10:44:20;;;;;;;;;0.00;0.00;;;;;19.91;44.02;101194.56;5011645;28;45800;-79
2022/07/01 10:46:57;;;;;;;;;0.00;0.00;;;;;20.06;44.42;101213.44;4993696;28;46161;-80
2022/07/01 10:49:35;;;;;;;;;0.50;0.00;;;;;20.18;43.99;101208.69;5007762;28;45823;-80
2022/07/01 10:52:02;;;;;;;;;1.00;0.00;;;;;20.17;43.93;101201.69;5011292;28;46764;-79
2022/07/01 10:54:36;;;;;;;;;0.00;0.00;;;;;20.35;43.89;101221.16;5011677;28;46327;-82
2022/07/01 10:57:20;;;;;;;;;0.00;0.00;;;;;20.42;43.46;101211.53;5010974;28;45793;-78
2022/07/01 10:59:45;;;;;;;;;0.00;0.00;;;;;20.44;43.34;101223.69;5011975;28;45902;-80
2022/07/01 11:02:19;;;;;;;;;0.00;0.00;;;;;20.44;43.25;101231.69;5003220;28;46245;-78
2022/07/01 11:04:45;;;;;;;;;1.00;0.00;;;;;20.41;43.39;101225.81;5008817;28;46390;-79
2022/07/01 11:07:11;;;;;;;;;0.00;0.00;;;;;20.32;43.10;101208.16;5011543;28;45793;-81
2022/07/01 11:09:36;;;;;;;;;0.00;0.00;;;;;20.33;42.97;101215.16;4993436;28;45961;-80
2022/07/01 11:12:04;;;;;;;;;0.00;0.00;;;;;20.40;43.21;101221.53;5008981;28;45700;-80
2022/07/01 11:14:33;;;;;;;;;0.00;0.00;;;;;20.44;43.31;101229.03;5010548;28;45889;-83
2022/07/01 11:16:59;;;;;;;;;0.00;0.00;;;;;20.47;43.17;101227.84;5012957;28;45782;-81
2022/07/01 11:19:24;;;;;;;;;0.50;0.50;;;;;20.48;43.05;101211.72;5010748;28;45663;-82
2022/07/01 11:21:51;;;;;;;;;0.25;0.25;;;;;20.61;43.14;101227.28;5002981;28;47270;-82
2022/07/01 11:24:18;;;;;;;;;0.00;0.00;;;;;20.69;42.93;101226.47;5010994;28;45914;-82
2022/07/01 11:26:43;;;;;;;;;0.00;0.00;;;;;20.69;43.09;101202.50;5013160;28;45635;-80
2022/07/01 11:29:14;;;;;;;;;0.75;0.00;;;;;20.73;43.26;101201.22;5013144;28;45738;-82
2022/07/01 11:31:40;;;;;;;;;0.00;0.00;;;;;20.87;42.98;101205.91;5016598;28;45802;-82
2022/07/01 11:34:06;;;;;;;;;0.00;0.00;;;;;20.93;42.53;101211.44;5013097;28;45623;-78
2022/07/01 11:39:24;;;;;;;;;0.50;0.00;;;;;21.02;42.00;101224.78;5024878;28;45646;-78
2022/07/01 11:42:08;;;;;;;;;0.00;0.00;;;;;21.02;41.24;101212.28;5024474;28;45633;-79
2022/07/01 11:44:43;;;;;;;;;1.25;0.00;;;;;21.06;41.22;101226.13;5008448;28;46396;-83
2022/07/01 11:47:22;;;;;;;;;0.00;0.00;;;;;21.05;41.51;101224.47;5002810;28;46886;-81
2022/07/01 11:49:48;;;;;;;;;0.00;0.00;;;;;21.05;41.36;101213.81;5015343;28;46556;-80